Time;durP1;ratioP1;P1;durP2;ratioP2;P2;SDS_P1;SDS_P2;PMS_P1;PMS_P2;Temp;Humidity;BMP_temperature;BMP_pressure;BME280_temperature;BME280_humidity;BME280_pressure;Samples;Min_cycle;Max_cycle;Signal;HPM_P1;HPM_P2
2022/04/27 05:25:34;;;;;;;;;;;;;;;9.52;69.98;97103.34;4207799;27;10210;-72
2022/04/27 05:27:37;;;;;;;;;;;;;;;9.58;69.42;97106.06;4206575;28;5811;-72
2022/04/27 05:31:59;;;;;;;;;;;;;;;9.71;69.34;97107.28;4195236;28;5935;-72
2022/04/27 05:34:01;;;;;;;;;;;;;;;9.73;68.98;97107.91;4200241;28;5785;-72
2022/04/27 05:36:03;;;;;;;;;;;;;;;9.76;69.03;97118.94;4204794;28;6531;-72
2022/04/27 05:38:05;;;;;;;;;;;;;;;9.80;68.83;97112.28;4201355;28;5699;-72
2022/04/27 05:40:10;;;;;;;;;;;;;;;9.74;70.09;97113.03;4207637;28;6012;-72
2022/04/27 05:42:11;;;;;;;;;;;;;;;9.79;69.35;97121.22;4206255;28;5797;-72
2022/04/27 05:44:13;;;;;;;;;;;;;;;9.87;69.10;97120.31;4209646;28;5818;-72
2022/04/27 05:46:15;;;;;;;;;;;;;;;9.78;70.03;97122.22;4194491;28;5959;-72
2022/04/27 05:48:16;;;;;;;;;;;;;;;9.83;69.39;97119.84;4209815;28;5743;-72
2022/04/27 05:50:18;;;;;;;;;;;;;;;9.86;69.49;97121.34;4198789;28;5670;-72
2022/04/27 05:52:20;;;;;;;;;;;;;;;9.82;69.91;97122.69;4193898;28;5744;-72
2022/04/27 05:54:21;;;;;;;;;;;;;;;9.87;69.69;97130.88;4195255;28;6426;-72
2022/04/27 05:56:24;;;;;;;;;;;;;;;9.89;69.17;97128.88;4207054;28;5794;-72
2022/04/27 05:58:26;;;;;;;;;;;;;;;9.89;69.50;97121.78;4211446;28;5793;-72
2022/04/27 06:00:28;;;;;;;;;;;;;;;10.00;69.06;97135.53;4194942;28;5942;-72
2022/04/27 06:02:29;;;;;;;;;;;;;;;10.07;68.82;97126.69;4193936;28;5800;-72
2022/04/27 06:04:31;;;;;;;;;;;;;;;10.15;69.01;97134.53;4195893;28;5807;-71
2022/04/27 06:06:34;;;;;;;;;;;;;;;10.22;68.99;97134.69;4194838;28;5819;-72
2022/04/27 06:08:35;;;;;;;;;;;;;;;10.29;68.46;97135.56;4193700;28;5848;-72
2022/04/27 06:10:40;;;;;;;;;;;;;;;10.40;68.26;97126.34;4201803;28;5819;-72
2022/04/27 06:12:46;;;;;;;;;;;;;;;10.51;68.48;97133.81;4208784;28;5401;-72
2022/04/27 06:14:48;;;;;;;;;;;;;;;10.56;68.46;97133.28;4194345;28;7880;-71
2022/04/27 06:16:50;;;;;;;;;;;;;;;10.64;68.13;97133.97;4193530;28;6539;-71
2022/04/27 06:18:51;;;;;;;;;;;;;;;10.68;68.29;97124.69;4194949;28;5802;-71
2022/04/27 06:20:53;;;;;;;;;;;;;;;10.80;68.52;97122.38;4195030;28;5798;-72
2022/04/27 06:22:56;;;;;;;;;;;;;;;10.81;68.09;97128.50;4194779;28;5914;-72
2022/04/27 06:24:59;;;;;;;;;;;;;;;10.87;67.83;97133.03;4196328;28;6051;-72
2022/04/27 06:27:01;;;;;;;;;;;;;;;11.04;67.51;97122.03;4191778;28;5914;-72
2022/04/27 06:29:03;;;;;;;;;;;;;;;11.00;67.19;97131.38;4192918;28;5083;-72
2022/04/27 06:31:05;;;;;;;;;;;;;;;11.09;65.91;97132.03;4188604;28;7774;-72
2022/04/27 06:33:06;;;;;;;;;;;;;;;11.32;66.56;97127.38;4185992;28;5786;-74
2022/04/27 06:35:13;;;;;;;;;;;;;;;11.39;65.75;97132.75;4185734;28;5886;-69
2022/04/27 06:37:15;;;;;;;;;;;;;;;11.38;65.79;97133.75;4195030;28;5867;-70
2022/04/27 06:39:18;;;;;;;;;;;;;;;11.37;65.94;97132.94;4193634;28;5802;-70
2022/04/27 06:41:19;;;;;;;;;;;;;;;11.38;66.16;97131.13;4196064;28;5829;-70
2022/04/27 06:43:21;;;;;;;;;;;;;;;11.42;65.52;97135.00;4196540;28;5894;-70
2022/04/27 06:45:27;;;;;;;;;;;;;;;11.37;65.79;97134.78;4194894;28;5801;-70
2022/04/27 06:47:29;;;;;;;;;;;;;;;11.28;65.59;97142.03;4198132;28;5860;-70
2022/04/27 06:49:31;;;;;;;;;;;;;;;10.99;66.76;97137.66;4199252;28;5790;-70
2022/04/27 06:51:32;;;;;;;;;;;;;;;11.14;66.26;97131.50;4189603;28;6470;-70
2022/04/27 06:53:34;;;;;;;;;;;;;;;11.17;66.44;97137.22;4189497;28;5777;-70
2022/04/27 06:55:37;;;;;;;;;;;;;;;11.16;66.43;97132.13;4184284;28;5881;-70
2022/04/27 06:57:39;;;;;;;;;;;;;;;11.02;66.25;97136.47;4192638;28;6080;-71
2022/04/27 06:59:41;;;;;;;;;;;;;;;10.88;66.73;97138.16;4191564;28;5791;-68
2022/04/27 07:01:43;;;;;;;;;;;;;;;10.67;67.48;97140.75;4192894;28;5793;-69
2022/04/27 07:03:45;;;;;;;;;;;;;;;10.76;67.13;97144.94;4183410;28;6518;-69
2022/04/27 07:05:47;;;;;;;;;;;;;;;10.69;67.41;97149.31;4192272;28;6648;-70
2022/04/27 07:07:49;;;;;;;;;;;;;;;10.54;68.33;97148.53;4192874;28;5801;-69
2022/04/27 07:09:50;;;;;;;;;;;;;;;10.46;68.66;97147.59;4192385;28;5825;-70
2022/04/27 07:11:52;;;;;;;;;;;;;;;10.46;68.84;97152.06;4193887;28;5818;-70
2022/04/27 07:13:54;;;;;;;;;;;;;;;10.35;68.94;97149.88;4191306;28;5885;-70
2022/04/27 07:16:00;;;;;;;;;;;;;;;10.21;70.39;97151.50;4191763;28;5777;-70
2022/04/27 07:18:02;;;;;;;;;;;;;;;10.15;70.23;97154.84;4192531;28;5851;-70
2022/04/27 07:20:05;;;;;;;;;;;;;;;10.24;70.17;97147.69;4193238;28;5865;-70
2022/04/27 07:22:07;;;;;;;;;;;;;;;10.25;69.78;97150.16;4193229;28;5790;-70
2022/04/27 07:24:09;;;;;;;;;;;;;;;10.15;69.72;97152.22;4190469;28;5999;-70
2022/04/27 07:26:11;;;;;;;;;;;;;;;10.26;69.83;97154.44;4193904;28;5797;-69
2022/04/27 07:28:13;;;;;;;;;;;;;;;10.36;69.91;97157.63;4190971;28;5782;-69
2022/04/27 07:30:15;;;;;;;;;;;;;;;10.34;69.60;97159.63;4186332;28;6452;-70
2022/04/27 07:32:16;;;;;;;;;;;;;;;10.41;69.29;97159.72;4193741;28;5793;-70
2022/04/27 07:34:18;;;;;;;;;;;;;;;10.42;69.72;97156.09;4191992;28;5839;-70
2022/04/27 07:36:20;;;;;;;;;;;;;;;10.46;68.99;97155.53;4189742;28;5845;-70
2022/04/27 07:38:21;;;;;;;;;;;;;;;10.35;70.11;97160.47;4191940;28;5914;-70
2022/04/27 07:40:23;;;;;;;;;;;;;;;10.43;69.67;97155.91;4193739;28;5810;-66
2022/04/27 07:42:25;;;;;;;;;;;;;;;10.44;69.48;97160.19;4182447;28;5819;-70
2022/04/27 07:44:26;;;;;;;;;;;;;;;10.53;68.87;97152.97;4192295;28;5798;-70
2022/04/27 07:46:28;;;;;;;;;;;;;;;10.53;69.19;97152.97;4192168;28;5780;-69
2022/04/27 07:48:32;;;;;;;;;;;;;;;10.52;69.24;97151.31;4187278;28;5711;-69
2022/04/27 07:50:35;;;;;;;;;;;;;;;10.39;69.96;97151.97;4193611;28;5967;-69
2022/04/27 07:52:37;;;;;;;;;;;;;;;10.47;69.61;97148.41;4195964;28;5848;-70
2022/04/27 07:54:41;;;;;;;;;;;;;;;10.44;69.25;97160.19;4190130;28;6730;-70
2022/04/27 07:56:43;;;;;;;;;;;;;;;10.61;69.00;97160.78;4173466;28;5793;-70
2022/04/27 07:58:44;;;;;;;;;;;;;;;10.58;69.47;97149.78;4207213;28;5679;-71
2022/04/27 08:00:46;;;;;;;;;;;;;;;10.66;69.30;97153.16;4189212;28;5913;-72
2022/04/27 08:02:48;;;;;;;;;;;;;;;10.72;68.77;97156.88;4192846;28;5591;-67
2022/04/27 08:04:50;;;;;;;;;;;;;;;10.75;68.98;97156.47;4190712;28;7393;-68
2022/04/27 08:06:52;;;;;;;;;;;;;;;10.74;69.28;97160.13;4191911;28;5806;-69
2022/04/27 08:08:53;;;;;;;;;;;;;;;10.64;69.81;97154.31;4193643;28;5833;-69
2022/04/27 08:10:56;;;;;;;;;;;;;;;10.67;69.42;97156.63;4191687;28;5926;-69
2022/04/27 08:12:58;;;;;;;;;;;;;;;10.68;68.74;97159.06;4194483;28;5809;-68
2022/04/27 08:15:00;;;;;;;;;;;;;;;10.72;68.98;97159.50;4191820;28;5897;-69
2022/04/27 08:17:02;;;;;;;;;;;;;;;10.52;70.96;97158.44;4188863;28;5909;-67
2022/04/27 08:19:04;;;;;;;;;;;;;;;10.54;71.03;97154.63;4193970;28;5823;-76
2022/04/27 08:21:15;;;;;;;;;;;;;;;10.47;70.49;97165.09;4190504;28;5929;-67
2022/04/27 08:23:17;;;;;;;;;;;;;;;10.64;70.91;97164.88;4190057;28;5797;-70
2022/04/27 08:25:19;;;;;;;;;;;;;;;10.64;70.74;97165.72;4192822;28;5786;-66
2022/04/27 08:27:21;;;;;;;;;;;;;;;10.61;69.68;97167.91;4193736;28;5848;-68
2022/04/27 08:29:22;;;;;;;;;;;;;;;10.59;69.39;97167.28;4191455;28;5806;-73
2022/04/27 08:31:24;;;;;;;;;;;;;;;10.70;69.26;97166.81;4193328;28;5790;-68
2022/04/27 08:33:26;;;;;;;;;;;;;;;10.74;69.23;97162.78;4190568;28;5751;-69
2022/04/27 08:35:29;;;;;;;;;;;;;;;10.88;68.68;97164.59;4184042;28;5812;-67
2022/04/27 08:37:30;;;;;;;;;;;;;;;10.90;69.44;97159.94;4195299;28;5837;-68
2022/04/27 08:39:32;;;;;;;;;;;;;;;10.61;68.98;97163.44;4192019;28;5896;-72
2022/04/27 08:41:34;;;;;;;;;;;;;;;10.63;69.72;97168.53;4184039;28;5794;-72
2022/04/27 08:43:35;;;;;;;;;;;;;;;10.76;70.03;97168.72;4191543;28;5937;-72
2022/04/27 08:45:40;;;;;;;;;;;;;;;10.84;69.33;97159.84;4190780;28;5917;-67
2022/04/27 08:47:45;;;;;;;;;;;;;;;10.91;68.94;97158.94;4190764;28;5801;-69
2022/04/27 08:49:46;;;;;;;;;;;;;;;10.98;69.05;97167.75;4190736;28;5805;-69
2022/04/27 08:51:48;;;;;;;;;;;;;;;10.93;68.89;97159.56;4194352;28;5797;-67
2022/04/27 08:53:50;;;;;;;;;;;;;;;11.02;68.09;97161.09;4193120;28;5975;-70
2022/04/27 08:55:53;;;;;;;;;;;;;;;10.97;69.16;97162.66;4193463;28;5813;-78
2022/04/27 08:58:05;;;;;;;;;;;;;;;11.06;70.16;97165.00;4183361;28;5822;-73
2022/04/27 09:00:26;;;;;;;;;;;;;;;11.06;70.19;97175.56;4185095;28;5811;-76
2022/04/27 09:02:30;;;;;;;;;;;;;;;10.98;69.03;97162.44;4191114;28;6566;-75
2022/04/27 09:04:32;;;;;;;;;;;;;;;10.92;69.30;97163.22;4193525;28;5921;-67
2022/04/27 09:06:41;;;;;;;;;;;;;;;11.03;69.09;97162.72;4191471;28;5876;-70
2022/04/27 09:08:45;;;;;;;;;;;;;;;11.16;68.19;97163.88;4182862;28;5823;-74
2022/04/27 09:10:47;;;;;;;;;;;;;;;11.28;68.24;97165.03;4181764;28;5811;-67
2022/04/27 09:12:50;;;;;;;;;;;;;;;11.37;67.72;97166.53;4188006;28;5793;-67
2022/04/27 09:14:51;;;;;;;;;;;;;;;11.25;66.89;97165.41;4186573;28;5839;-64
2022/04/27 09:21:55;;;;;;;;;;;;;;;11.30;66.70;97170.94;4190742;28;5801;-65
2022/04/27 09:24:06;;;;;;;;;;;;;;;11.19;65.66;97166.13;4191027;28;5853;-66
2022/04/27 09:26:22;;;;;;;;;;;;;;;11.26;65.65;97164.41;4189004;28;5122;-66
2022/04/27 09:28:29;;;;;;;;;;;;;;;11.29;66.52;97166.66;4181488;28;5834;-66
2022/04/27 09:30:33;;;;;;;;;;;;;;;11.24;66.63;97163.75;4179231;28;5816;-66
2022/04/27 09:32:34;;;;;;;;;;;;;;;11.18;66.37;97161.84;4179346;28;5741;-65
2022/04/27 09:34:44;;;;;;;;;;;;;;;11.29;66.79;97166.66;4165745;28;5658;-65
2022/04/27 09:36:46;;;;;;;;;;;;;;;11.29;65.53;97164.00;4180827;28;5823;-65
2022/04/27 09:38:48;;;;;;;;;;;;;;;11.25;66.04;97162.75;4186042;28;5846;-66
2022/04/27 09:40:54;;;;;;;;;;;;;;;11.33;65.59;97160.81;4188672;28;5964;-65
2022/04/27 09:42:59;;;;;;;;;;;;;;;11.46;65.79;97159.31;4189276;28;5785;-65
2022/04/27 09:45:19;;;;;;;;;;;;;;;11.43;66.44;97160.47;4189900;28;5838;-65
2022/04/27 09:47:21;;;;;;;;;;;;;;;11.47;65.16;97153.00;4186677;28;5798;-65
2022/04/27 09:49:23;;;;;;;;;;;;;;;11.62;65.73;97159.84;4192131;28;5801;-65
2022/04/27 09:51:32;;;;;;;;;;;;;;;11.74;65.55;97154.84;4190830;28;5785;-65
2022/04/27 09:53:37;;;;;;;;;;;;;;;11.77;65.08;97156.28;4192576;28;5884;-65
2022/04/27 09:55:46;;;;;;;;;;;;;;;11.82;65.53;97141.50;4190840;28;6007;-65
2022/04/27 09:57:54;;;;;;;;;;;;;;;11.76;63.09;97144.06;4192006;28;5872;-65
2022/04/27 09:59:56;;;;;;;;;;;;;;;11.69;62.99;97137.91;4187268;28;5793;-65
2022/04/27 10:02:06;;;;;;;;;;;;;;;11.84;63.27;97146.59;4193992;28;5817;-66
2022/04/27 10:04:10;;;;;;;;;;;;;;;11.92;62.54;97146.47;4187919;28;6526;-73
2022/04/27 10:06:12;;;;;;;;;;;;;;;11.99;61.34;97149.16;4190127;28;7762;-67
2022/04/27 10:08:14;;;;;;;;;;;;;;;11.98;61.47;97143.03;4189017;28;5852;-67
2022/04/27 10:10:16;;;;;;;;;;;;;;;11.99;61.91;97143.84;4183646;28;5755;-68
2022/04/27 10:12:18;;;;;;;;;;;;;;;11.94;62.14;97141.78;4184886;28;5825;-69
2022/04/27 10:14:21;;;;;;;;;;;;;;;11.90;62.37;97145.84;4197938;28;5798;-67
2022/04/27 10:16:27;;;;;;;;;;;;;;;12.00;62.62;97135.72;4194015;28;5798;-68
2022/04/27 10:18:33;;;;;;;;;;;;;;;12.09;62.31;97139.84;4182820;28;5915;-69
2022/04/27 10:20:35;;;;;;;;;;;;;;;11.97;62.10;97130.81;4183693;28;6513;-68
2022/04/27 10:22:36;;;;;;;;;;;;;;;12.14;62.00;97137.44;4186084;28;5822;-62
2022/04/27 10:24:46;;;;;;;;;;;;;;;12.15;62.05;97127.66;4185420;28;5873;-66
2022/04/27 10:26:47;;;;;;;;;;;;;;;12.16;60.64;97122.16;4186988;28;6665;-69
2022/04/27 10:28:53;;;;;;;;;;;;;;;12.24;60.76;97131.81;4192484;28;5891;-66
2022/04/27 10:30:56;;;;;;;;;;;;;;;12.30;61.13;97132.84;4194052;28;5790;-69
2022/04/27 10:32:58;;;;;;;;;;;;;;;12.41;60.83;97129.63;4188471;28;5803;-77
2022/04/27 10:35:33;;;;;;;;;;;;;;;12.43;60.84;97138.22;4193952;28;5885;-69
2022/04/27 10:37:51;;;;;;;;;;;;;;;12.49;60.92;97129.47;4184869;28;5814;-91
2022/04/27 10:39:52;;;;;;;;;;;;;;;12.58;60.76;97128.31;4186159;28;5913;-79
2022/04/27 10:41:56;;;;;;;;;;;;;;;12.38;59.98;97128.22;4198206;28;5835;-76
2022/04/27 10:43:58;;;;;;;;;;;;;;;12.52;59.91;97127.25;4196394;28;6101;-71
2022/04/27 10:46:44;;;;;;;;;;;;;;;12.53;60.22;97128.88;4191896;28;7309;-71
2022/04/27 10:48:48;;;;;;;;;;;;;;;12.45;60.56;97118.44;4191749;28;5818;-71
2022/04/27 10:51:01;;;;;;;;;;;;;;;12.57;60.71;97125.81;4194786;28;5718;-72
2022/04/27 10:53:17;;;;;;;;;;;;;;;12.65;60.77;97128.31;4194215;28;5821;-70
2022/04/27 10:55:34;;;;;;;;;;;;;;;12.64;60.49;97132.00;4201675;28;6387;-70
2022/04/27 10:57:39;;;;;;;;;;;;;;;12.60;61.17;97131.56;4189991;28;5792;-70
2022/04/27 10:59:44;;;;;;;;;;;;;;;12.69;60.86;97130.41;4186209;28;5711;-70
2022/04/27 11:01:51;;;;;;;;;;;;;;;12.74;60.94;97137.75;4198191;28;5669;-69
2022/04/27 11:03:55;;;;;;;;;;;;;;;12.75;60.64;97129.59;4202677;28;5657;-70
2022/04/27 11:05:59;;;;;;;;;;;;;;;12.76;60.06;97141.00;4193127;28;5889;-69
2022/04/27 11:08:17;;;;;;;;;;;;;;;12.61;61.07;97135.03;4191178;28;5792;-69
2022/04/27 11:10:21;;;;;;;;;;;;;;;12.81;61.12;97133.31;4201463;28;5821;-69
2022/04/27 11:12:25;;;;;;;;;;;;;;;12.85;61.55;97134.53;4200972;28;5706;-69
2022/04/27 11:14:29;;;;;;;;;;;;;;;12.83;61.68;97137.38;4202617;28;6341;-70
2022/04/27 11:16:43;;;;;;;;;;;;;;;12.96;61.45;97130.47;4188618;28;5717;-70
2022/04/27 11:18:49;;;;;;;;;;;;;;;12.96;61.53;97136.59;4198033;28;5751;-70
2022/04/27 11:20:59;;;;;;;;;;;;;;;13.00;61.53;97129.06;4195540;28;5773;-71
2022/04/27 11:23:22;;;;;;;;;;;;;;;12.96;61.96;97131.28;4193830;28;6018;-71
2022/04/27 11:25:25;;;;;;;;;;;;;;;12.95;62.18;97139.47;4190458;28;5741;-67
2022/04/27 11:27:29;;;;;;;;;;;;;;;12.83;62.06;97134.72;4194049;28;5800;-68
2022/04/27 11:29:32;;;;;;;;;;;;;;;13.08;62.82;97136.84;4199053;28;5103;-68
2022/04/27 11:31:34;;;;;;;;;;;;;;;13.21;61.98;97144.88;4193300;28;5778;-68
2022/04/27 11:33:40;;;;;;;;;;;;;;;13.30;61.88;97138.34;4197909;28;5745;-69
2022/04/27 11:35:47;;;;;;;;;;;;;;;13.26;62.00;97142.44;4193853;28;5911;-69
2022/04/27 11:37:55;;;;;;;;;;;;;;;13.21;62.06;97134.25;4197314;28;6366;-68
2022/04/27 11:40:13;;;;;;;;;;;;;;;13.38;61.98;97140.00;4190194;28;5896;-68
2022/04/27 11:42:16;;;;;;;;;;;;;;;13.48;61.62;97145.75;4193814;28;5711;-68
2022/04/27 11:44:19;;;;;;;;;;;;;;;13.61;62.03;97139.63;4195755;28;5166;-67
2022/04/27 11:46:21;;;;;;;;;;;;;;;13.60;61.36;97135.34;4196598;28;8479;-68
2022/04/27 11:48:27;;;;;;;;;;;;;;;13.44;61.16;97144.50;4186395;28;5806;-68
2022/04/27 11:50:35;;;;;;;;;;;;;;;13.64;61.66;97140.03;4201630;28;5694;-68
2022/04/27 11:52:37;;;;;;;;;;;;;;;13.71;60.93;97137.38;4201505;28;5788;-68
2022/04/27 11:54:39;;;;;;;;;;;;;;;13.78;61.40;97129.38;4194623;28;5804;-68
2022/04/27 11:56:42;;;;;;;;;;;;;;;13.86;61.29;97131.84;4198614;28;5754;-67
2022/04/27 11:58:45;;;;;;;;;;;;;;;13.91;61.19;97132.84;4192329;28;5806;-67
2022/04/27 12:00:49;;;;;;;;;;;;;;;14.05;61.26;97127.56;4188137;28;5807;-67
2022/04/27 12:02:51;;;;;;;;;;;;;;;13.99;60.49;97132.66;4184672;28;5739;-68
2022/04/27 12:04:59;;;;;;;;;;;;;;;13.92;61.01;97125.69;4188452;28;5871;-68
2022/04/27 12:07:01;;;;;;;;;;;;;;;13.81;60.83;97121.00;4184428;28;5728;-68
2022/04/27 12:09:03;;;;;;;;;;;;;;;13.69;62.22;97129.59;4188886;28;5650;-69
2022/04/27 12:11:05;;;;;;;;;;;;;;;13.94;61.19;97129.00;4193247;28;6387;-69
2022/04/27 12:13:11;;;;;;;;;;;;;;;14.04;61.21;97123.22;4190560;28;5831;-68
2022/04/27 12:15:14;;;;;;;;;;;;;;;14.14;60.70;97115.66;4192240;28;5234;-67
2022/04/27 12:17:44;;;;;;;;;;;;;;;14.16;60.41;97105.66;4183964;28;7774;-68
2022/04/27 12:19:49;;;;;;;;;;;;;;;14.18;60.54;97114.22;4188332;28;5723;-68
2022/04/27 12:21:52;;;;;;;;;;;;;;;14.31;60.64;97118.69;4194480;28;5970;-68
2022/04/27 12:23:57;;;;;;;;;;;;;;;14.33;60.37;97117.44;4183091;28;5803;-68
2022/04/27 12:26:00;;;;;;;;;;;;;;;14.20;59.73;97114.81;4189320;28;5754;-67
2022/04/27 12:28:04;;;;;;;;;;;;;;;14.34;60.31;97110.28;4193493;28;6596;-67
2022/04/27 12:30:07;;;;;;;;;;;;;;;14.38;60.17;97107.00;4186258;28;5809;-67
2022/04/27 12:32:12;;;;;;;;;;;;;;;14.32;59.82;97109.69;4187319;28;5838;-68
2022/04/27 12:38:57;;;;;;;;;;;;;;;14.56;61.42;97107.19;4188541;28;5818;-68
2022/04/27 12:40:59;;;;;;;;;;;;;;;14.61;61.13;97100.41;4188870;28;5790;-68
2022/04/27 12:43:06;;;;;;;;;;;;;;;14.69;60.88;97094.84;4186592;28;5878;-68
2022/04/27 12:45:08;;;;;;;;;;;;;;;14.74;61.32;97087.06;4186473;28;5802;-69
2022/04/27 12:47:12;;;;;;;;;;;;;;;14.75;61.13;97088.69;4188893;28;5750;-69
2022/04/27 12:49:29;;;;;;;;;;;;;;;14.73;61.34;97091.56;4183668;28;5878;-68
2022/04/27 12:51:34;;;;;;;;;;;;;;;14.81;61.13;97093.16;4193850;28;5785;-68
2022/04/27 12:53:36;;;;;;;;;;;;;;;14.89;59.66;97090.25;4194364;28;5739;-68
2022/04/27 12:55:38;;;;;;;;;;;;;;;14.93;59.79;97086.13;4191904;28;5910;-68
2022/04/27 12:57:47;;;;;;;;;;;;;;;14.95;58.93;97092.06;4187074;28;5913;-68
2022/04/27 13:00:03;;;;;;;;;;;;;;;14.95;59.63;97091.22;4182416;28;5845;-68
2022/04/27 13:02:06;;;;;;;;;;;;;;;15.00;59.25;97092.25;4184405;28;6521;-69
2022/04/27 13:04:08;;;;;;;;;;;;;;;15.06;58.63;97091.41;4181361;28;5834;-68
2022/04/27 13:06:10;;;;;;;;;;;;;;;15.08;59.19;97088.50;4181485;28;5841;-69
2022/04/27 13:08:12;;;;;;;;;;;;;;;15.09;59.04;97085.63;4184238;28;6646;-70
2022/04/27 13:12:36;;;;;;;;;;;;;;;15.17;57.32;97078.41;4184520;28;5940;-69
2022/04/27 13:14:37;;;;;;;;;;;;;;;15.07;57.95;97076.22;4173831;28;5761;-69
2022/04/27 13:16:39;;;;;;;;;;;;;;;14.85;58.51;97078.41;4189269;28;5841;-69
2022/04/27 13:18:41;;;;;;;;;;;;;;;14.91;58.31;97076.72;4190369;28;6791;-69
2022/04/27 13:20:44;;;;;;;;;;;;;;;14.92;58.79;97073.84;4187643;28;5845;-69
2022/04/27 13:22:46;;;;;;;;;;;;;;;14.96;57.78;97075.06;4186092;28;5789;-69
2022/04/27 13:24:48;;;;;;;;;;;;;;;14.92;58.56;97076.50;4195815;28;5786;-70
2022/04/27 13:26:57;;;;;;;;;;;;;;;14.96;58.85;97079.56;4185566;28;5878;-69
2022/04/27 13:28:59;;;;;;;;;;;;;;;15.06;59.64;97067.44;4185935;28;5779;-69
2022/04/27 13:31:02;;;;;;;;;;;;;;;15.17;59.55;97065.91;4186144;28;5973;-69
2022/04/27 13:33:04;;;;;;;;;;;;;;;15.21;59.79;97071.63;4183682;28;6629;-68
2022/04/27 13:35:06;;;;;;;;;;;;;;;15.17;58.44;97065.09;4185621;28;5821;-68
2022/04/27 13:37:08;;;;;;;;;;;;;;;15.16;58.64;97061.59;4189426;28;5789;-68
2022/04/27 13:39:10;;;;;;;;;;;;;;;15.22;58.46;97058.09;4192916;28;5738;-69
2022/04/27 13:41:12;;;;;;;;;;;;;;;15.28;58.86;97059.06;4194702;28;5616;-68
2022/04/27 13:43:13;;;;;;;;;;;;;;;15.36;58.72;97053.47;4188107;28;7800;-67
2022/04/27 13:45:16;;;;;;;;;;;;;;;15.50;59.08;97049.66;4191095;28;5946;-67
2022/04/27 13:47:17;;;;;;;;;;;;;;;15.60;58.73;97051.88;4187996;28;5789;-69
2022/04/27 13:49:19;;;;;;;;;;;;;;;15.60;58.03;97047.34;4192306;28;5811;-68
2022/04/27 13:51:21;;;;;;;;;;;;;;;15.62;57.55;97050.63;4196922;28;5719;-68
2022/04/27 13:53:22;;;;;;;;;;;;;;;15.66;57.76;97043.84;4193321;28;5953;-68
2022/04/27 13:55:25;;;;;;;;;;;;;;;15.72;57.91;97048.28;4191521;28;5805;-68
2022/04/27 13:57:27;;;;;;;;;;;;;;;15.74;57.02;97045.38;4199619;28;5826;-68
2022/04/27 13:59:29;;;;;;;;;;;;;;;15.78;57.43;97040.44;4192060;28;5842;-69
2022/04/27 14:01:31;;;;;;;;;;;;;;;15.86;57.37;97045.50;4189393;28;5826;-68
2022/04/27 14:03:33;;;;;;;;;;;;;;;15.93;56.54;97038.25;4183847;28;5979;-68
2022/04/27 14:05:35;;;;;;;;;;;;;;;15.97;56.37;97039.44;4185481;28;5656;-68
2022/04/27 14:07:37;;;;;;;;;;;;;;;15.97;56.36;97037.59;4184860;28;5782;-68
2022/04/27 14:09:39;;;;;;;;;;;;;;;15.99;55.43;97037.38;4187186;28;5823;-67
2022/04/27 14:14:02;;;;;;;;;;;;;;;16.08;54.97;97027.19;4199657;28;5789;-68
2022/04/27 14:18:24;;;;;;;;;;;;;;;16.12;55.02;97025.75;4194565;28;5855;-68
2022/04/27 14:20:26;;;;;;;;;;;;;;;16.23;54.98;97022.34;4181975;28;5769;-67
2022/04/27 14:22:28;;;;;;;;;;;;;;;16.24;54.97;97029.28;4195664;28;5244;-68
2022/04/27 14:24:30;;;;;;;;;;;;;;;16.28;53.82;97030.47;4189867;28;5819;-67
2022/04/27 14:26:32;;;;;;;;;;;;;;;16.34;54.11;97020.78;4196775;28;5797;-68
2022/04/27 14:28:33;;;;;;;;;;;;;;;16.35;52.95;97023.22;4183991;28;5858;-68
2022/04/27 14:30:36;;;;;;;;;;;;;;;16.32;54.61;97028.19;4183898;28;5804;-68
2022/04/27 14:32:38;;;;;;;;;;;;;;;16.35;55.30;97020.53;4198550;28;5829;-68
2022/04/27 14:34:40;;;;;;;;;;;;;;;16.36;55.68;97018.69;4194172;28;5853;-68
2022/04/27 14:36:41;;;;;;;;;;;;;;;16.34;55.27;97026.09;4195223;28;5793;-68
2022/04/27 14:38:43;;;;;;;;;;;;;;;16.30;55.16;97034.53;4192092;28;5811;-68
2022/04/27 14:40:46;;;;;;;;;;;;;;;16.16;53.85;97026.91;4189752;28;5822;-68
2022/04/27 14:42:48;;;;;;;;;;;;;;;16.25;54.60;97021.06;4184501;28;5823;-68
2022/04/27 14:44:50;;;;;;;;;;;;;;;16.26;52.74;97027.22;4192191;28;5327;-68
2022/04/27 14:46:51;;;;;;;;;;;;;;;16.29;53.40;97019.56;4196620;28;5342;-67
2022/04/27 14:48:53;;;;;;;;;;;;;;;16.29;54.00;97014.22;4193753;28;7784;-68
2022/04/27 14:50:54;;;;;;;;;;;;;;;16.34;53.16;97018.09;4182954;28;5814;-68
2022/04/27 14:52:56;;;;;;;;;;;;;;;16.48;52.48;97014.22;4181784;28;5757;-67
2022/04/27 14:55:02;;;;;;;;;;;;;;;16.50;52.68;97015.63;4182007;28;5798;-67
2022/04/27 14:57:04;;;;;;;;;;;;;;;16.53;54.18;97011.69;4190517;28;5848;-67
2022/04/27 14:59:06;;;;;;;;;;;;;;;16.53;55.16;97017.84;4188167;28;6507;-67
2022/04/27 15:01:07;;;;;;;;;;;;;;;16.43;55.10;97020.25;4189395;28;5439;-68
2022/04/27 15:03:10;;;;;;;;;;;;;;;16.44;54.82;97019.19;4190961;28;5790;-69
2022/04/27 15:05:15;;;;;;;;;;;;;;;16.41;54.66;97019.63;4192599;28;5790;-70
2022/04/27 15:07:16;;;;;;;;;;;;;;;16.41;54.44;97016.97;4199129;28;5797;-69
2022/04/27 15:09:18;;;;;;;;;;;;;;;16.40;54.86;97007.34;4199560;28;5798;-70
2022/04/27 15:11:20;;;;;;;;;;;;;;;16.46;55.37;97002.97;4199396;28;5793;-70
2022/04/27 15:13:22;;;;;;;;;;;;;;;16.49;54.61;97005.19;4199339;28;5789;-69
2022/04/27 15:15:25;;;;;;;;;;;;;;;16.39;53.30;97000.38;4180984;28;5916;-69
2022/04/27 15:17:27;;;;;;;;;;;;;;;16.44;53.70;96997.84;4197654;28;5762;-69
2022/04/27 15:19:35;;;;;;;;;;;;;;;16.47;52.11;97001.91;4199464;28;5793;-70
2022/04/27 15:23:58;;;;;;;;;;;;;;;16.52;53.21;97002.84;4198983;28;6471;-69
2022/04/27 15:26:00;;;;;;;;;;;;;;;16.55;51.56;96990.94;4190150;28;5815;-70
2022/04/27 15:28:01;;;;;;;;;;;;;;;16.57;50.64;97005.69;4183473;28;5842;-69
2022/04/27 15:30:06;;;;;;;;;;;;;;;16.63;52.51;97001.28;4191635;28;5802;-70
2022/04/27 15:32:10;;;;;;;;;;;;;;;16.59;51.87;97003.59;4182142;28;5799;-70
2022/04/27 15:34:18;;;;;;;;;;;;;;;16.59;52.17;97006.28;4189632;28;5750;-69
2022/04/27 15:36:20;;;;;;;;;;;;;;;16.59;51.79;97005.47;4190754;28;6448;-69
2022/04/27 15:38:21;;;;;;;;;;;;;;;16.48;51.94;97004.38;4198596;28;5781;-69
2022/04/27 15:40:23;;;;;;;;;;;;;;;16.47;51.79;97009.94;4199204;28;5797;-70
2022/04/27 15:42:25;;;;;;;;;;;;;;;16.41;50.62;97008.97;4190448;28;5818;-69
2022/04/27 15:44:26;;;;;;;;;;;;;;;16.40;51.63;97006.50;4185274;28;5813;-68
2022/04/27 15:46:28;;;;;;;;;;;;;;;16.39;52.06;97004.88;4196411;28;5785;-69
2022/04/27 15:48:30;;;;;;;;;;;;;;;16.43;52.18;97008.75;4191196;28;5806;-69
2022/04/27 15:50:35;;;;;;;;;;;;;;;16.45;52.19;97004.00;4198619;28;5790;-69
2022/04/27 15:52:39;;;;;;;;;;;;;;;16.51;51.96;97008.44;4198352;28;5788;-69
2022/04/27 15:54:41;;;;;;;;;;;;;;;16.53;52.06;97011.69;4198334;28;5805;-69
2022/04/27 15:56:42;;;;;;;;;;;;;;;16.52;51.57;97010.88;4196230;28;5896;-69
2022/04/27 15:58:44;;;;;;;;;;;;;;;16.51;50.54;97013.75;4195959;28;7192;-69
2022/04/27 16:00:48;;;;;;;;;;;;;;;16.52;51.11;97015.38;4188350;28;5750;-69
2022/04/27 16:02:50;;;;;;;;;;;;;;;16.51;51.16;97008.44;4186468;28;5844;-70
2022/04/27 16:04:53;;;;;;;;;;;;;;;16.51;51.23;97013.75;4186634;28;5942;-67
2022/04/27 16:06:54;;;;;;;;;;;;;;;16.52;51.32;97015.38;4194161;28;5866;-70
2022/04/27 16:08:56;;;;;;;;;;;;;;;16.53;50.37;97015.16;4194486;28;5803;-69
2022/04/27 16:10:59;;;;;;;;;;;;;;;16.56;49.76;97022.75;4186134;28;6521;-70
2022/04/27 16:13:02;;;;;;;;;;;;;;;16.50;49.87;97022.81;4190202;28;5802;-69
2022/04/27 16:15:05;;;;;;;;;;;;;;;16.54;50.81;97021.34;4182796;28;5827;-70
2022/04/27 16:17:07;;;;;;;;;;;;;;;16.54;50.30;97021.34;4194958;28;5801;-70
2022/04/27 16:19:10;;;;;;;;;;;;;;;16.56;50.62;97021.94;4198335;28;6499;-70
2022/04/27 16:23:32;;;;;;;;;;;;;;;16.61;51.62;97024.72;4187288;28;5877;-69
2022/04/27 16:25:37;;;;;;;;;;;;;;;16.58;50.55;97025.19;4186610;28;6611;-69
2022/04/27 16:27:39;;;;;;;;;;;;;;;16.59;49.79;97019.63;4195829;28;5867;-69
2022/04/27 16:29:41;;;;;;;;;;;;;;;16.66;49.23;97024.88;4184071;28;5880;-69
2022/04/27 16:31:43;;;;;;;;;;;;;;;16.68;49.13;97020.16;4181260;28;5982;-69
2022/04/27 16:33:45;;;;;;;;;;;;;;;16.83;46.96;97023.22;4179720;28;6459;-69
2022/04/27 16:35:47;;;;;;;;;;;;;;;16.83;46.47;97022.41;4190264;28;5793;-69
2022/04/27 16:37:49;;;;;;;;;;;;;;;16.86;46.62;97024.63;4192153;28;5754;-69
2022/04/27 16:39:51;;;;;;;;;;;;;;;16.84;46.95;97016.84;4184007;28;5786;-69
2022/04/27 16:41:53;;;;;;;;;;;;;;;16.88;46.81;97017.22;4193418;28;5832;-69